createdAt,value
2018-01-28T00:02:11.378Z,7.21
2018-01-28T00:04:38.814Z,7.26
2018-01-28T00:07:06.294Z,7.19
2018-01-28T00:09:33.739Z,7.23
2018-01-28T00:12:01.240Z,7.41
2018-01-28T00:14:28.693Z,7.19
2018-01-28T00:16:56.243Z,7.16
2018-01-28T00:19:23.757Z,7.20
2018-01-28T00:21:51.193Z,7.11
2018-01-28T00:24:18.651Z,7.20
2018-01-28T00:26:46.119Z,7.14
2018-01-28T00:29:13.566Z,7.17
2018-01-28T00:31:41.019Z,7.16
2018-01-28T00:34:08.664Z,7.18
2018-01-28T00:36:36.119Z,7.13
2018-01-28T00:39:03.577Z,7.23
2018-01-28T00:41:31.019Z,7.09
2018-01-28T00:43:58.475Z,7.14
2018-01-28T00:46:25.908Z,7.21
2018-01-28T00:48:53.382Z,7.22
2018-01-28T00:51:20.825Z,7.21
2018-01-28T00:53:48.341Z,7.15
2018-01-28T00:56:15.768Z,7.14
2018-01-28T00:58:43.221Z,7.20
2018-01-28T01:01:10.671Z,7.20
2018-01-28T01:03:38.887Z,7.19
2018-01-28T01:06:06.317Z,7.27
2018-01-28T01:08:33.874Z,7.26
2018-01-28T01:11:01.318Z,7.25
2018-01-28T01:13:28.764Z,7.31
2018-01-28T01:15:56.246Z,7.29
2018-01-28T01:18:23.688Z,7.34
2018-01-28T01:20:51.153Z,7.31
2018-01-28T01:23:18.598Z,7.39
2018-01-28T01:25:46.065Z,7.45
2018-01-28T01:28:13.516Z,7.43
2018-01-28T01:30:41.930Z,7.39
2018-01-28T01:33:09.373Z,7.40
2018-01-28T01:35:36.864Z,7.44
2018-01-28T01:38:04.309Z,7.43
2018-01-28T01:40:31.795Z,7.48
2018-01-28T01:42:59.251Z,7.47
2018-01-28T01:45:26.709Z,7.51
2018-01-28T01:47:54.172Z,7.54
2018-01-28T01:50:21.681Z,7.40
2018-01-28T01:52:49.132Z,7.48
2018-01-28T01:55:16.956Z,7.53
2018-01-28T01:57:44.398Z,7.52
2018-01-28T02:00:11.871Z,7.54
2018-01-28T02:02:39.323Z,7.52
2018-01-28T02:05:06.782Z,7.55
2018-01-28T02:07:34.259Z,7.56
2018-01-28T02:10:01.701Z,7.56
2018-01-28T02:12:29.157Z,7.59
2018-01-28T02:14:56.605Z,7.60
2018-01-28T02:17:24.069Z,7.58
2018-01-28T02:19:51.504Z,7.66
2018-01-28T02:22:18.961Z,7.59
2018-01-28T02:24:46.403Z,7.63
2018-01-28T02:27:13.869Z,7.63
2018-01-28T02:29:41.334Z,7.51
2018-01-28T02:32:08.817Z,7.59
2018-01-28T02:34:36.262Z,7.59
2018-01-28T02:37:04.000Z,7.60
2018-01-28T02:39:31.440Z,7.64
2018-01-28T02:41:58.908Z,7.69
2018-01-28T02:44:26.348Z,7.60
2018-01-28T02:46:53.789Z,7.71
2018-01-28T02:49:21.304Z,7.68
2018-01-28T02:51:48.749Z,7.57
2018-01-28T02:54:16.210Z,7.75
2018-01-28T02:56:43.813Z,7.74
2018-01-28T02:59:11.273Z,7.66
2018-01-28T03:01:40.112Z,7.69
2018-01-28T03:04:07.563Z,7.63
2018-01-28T03:06:34.997Z,7.63
2018-01-28T03:09:02.446Z,7.61
2018-01-28T03:11:29.873Z,7.68
2018-01-28T03:13:57.325Z,7.49
2018-01-28T03:16:24.774Z,7.47
2018-01-28T03:18:52.230Z,7.50
2018-01-28T03:21:19.668Z,7.56
2018-01-28T03:23:47.137Z,7.52
2018-01-28T03:26:14.753Z,7.51
2018-01-28T03:28:42.334Z,7.63
2018-01-28T03:31:09.761Z,7.63
2018-01-28T03:33:37.207Z,7.54
2018-01-28T03:36:04.662Z,7.59
2018-01-28T03:38:32.136Z,7.68
2018-01-28T03:40:59.613Z,7.72
2018-01-28T03:43:28.438Z,7.75
2018-01-28T03:45:55.898Z,7.63
2018-01-28T03:48:23.335Z,7.62
2018-01-28T03:50:50.786Z,7.61
2018-01-28T03:53:18.218Z,7.64
2018-01-28T03:55:45.670Z,7.70
2018-01-28T03:58:13.108Z,7.69
2018-01-28T04:00:40.541Z,7.65
2018-01-28T04:03:08.144Z,7.63
2018-01-28T04:05:35.604Z,7.70
2018-01-28T04:08:03.024Z,7.61
2018-01-28T04:10:30.486Z,7.65
2018-01-28T04:12:57.924Z,7.64
2018-01-28T04:15:25.362Z,7.51
2018-01-28T04:17:52.798Z,7.43
2018-01-28T04:20:20.333Z,7.43
2018-01-28T04:22:47.762Z,7.57
2018-01-28T04:25:15.237Z,7.50
2018-01-28T04:27:42.692Z,7.49
2018-01-28T04:30:10.122Z,7.43
2018-01-28T04:32:37.577Z,7.46
2018-01-28T04:35:05.110Z,7.51
2018-01-28T04:37:32.642Z,7.44
2018-01-28T04:40:00.143Z,7.53
2018-01-28T04:42:27.579Z,7.72
2018-01-28T04:44:55.005Z,7.70
2018-01-28T04:47:22.457Z,7.72
2018-01-28T04:49:49.895Z,7.71
2018-01-28T04:52:17.369Z,7.76
2018-01-28T04:54:44.810Z,7.75
2018-01-28T04:57:12.279Z,7.80
2018-01-28T04:59:39.719Z,7.63
2018-01-28T05:02:07.179Z,7.68
2018-01-28T05:04:34.608Z,7.65
2018-01-28T05:07:02.083Z,7.66
2018-01-28T05:09:29.507Z,7.59
2018-01-28T05:11:56.917Z,7.61
2018-01-28T05:14:24.365Z,7.51
2018-01-28T05:16:51.814Z,7.61
2018-01-28T05:19:19.273Z,7.49
2018-01-28T05:21:46.737Z,7.46
2018-01-28T05:24:14.225Z,7.43
2018-01-28T05:26:41.652Z,7.38
2018-01-28T05:29:09.698Z,7.41
2018-01-28T05:31:37.328Z,7.35
2018-01-28T05:34:04.792Z,7.33
2018-01-28T05:36:32.219Z,7.30
2018-01-28T05:38:59.671Z,7.35
2018-01-28T05:41:27.127Z,7.25
2018-01-28T05:43:54.629Z,7.04
2018-01-28T05:46:22.045Z,7.15
2018-01-28T05:48:49.506Z,6.84
2018-01-28T05:51:16.965Z,6.87
2018-01-28T05:53:44.460Z,6.83
2018-01-28T05:56:11.932Z,6.73
2018-01-28T05:58:39.741Z,6.80
2018-01-28T06:01:07.176Z,6.76
2018-01-28T06:03:34.612Z,6.89
2018-01-28T06:06:02.071Z,6.86
2018-01-28T06:08:29.616Z,6.80
2018-01-28T06:10:57.086Z,6.63
2018-01-28T06:13:24.512Z,6.71
2018-01-28T06:15:51.960Z,6.72
2018-01-28T06:18:19.400Z,6.85
2018-01-28T06:20:46.849Z,7.02
2018-01-28T06:23:14.281Z,6.85
2018-01-28T06:25:41.775Z,6.73
2018-01-28T06:28:10.068Z,6.81
2018-01-28T06:30:37.502Z,6.86
2018-01-28T06:33:04.947Z,6.82
2018-01-28T06:35:32.373Z,6.86
2018-01-28T06:37:59.810Z,6.89
2018-01-28T06:40:27.233Z,6.79
2018-01-28T06:42:54.684Z,6.73
2018-01-28T06:45:22.169Z,6.72
2018-01-28T06:47:49.668Z,6.78
2018-01-28T06:50:17.132Z,6.83
2018-01-28T06:52:45.069Z,6.96
2018-01-28T06:55:12.501Z,6.81
2018-01-28T06:57:40.206Z,6.82
2018-01-28T07:00:07.620Z,6.91
2018-01-28T07:02:35.098Z,6.91
2018-01-28T07:05:02.520Z,6.83
2018-01-28T07:07:29.999Z,6.82
2018-01-28T07:09:57.453Z,6.85
2018-01-28T07:12:24.892Z,6.89
2018-01-28T07:14:52.321Z,6.94
2018-01-28T07:17:19.876Z,6.91
2018-01-28T07:19:47.377Z,7.05
2018-01-28T07:22:14.808Z,7.04
2018-01-28T07:24:42.255Z,7.02
2018-01-28T07:27:11.041Z,6.96
2018-01-28T07:29:38.721Z,6.96
2018-01-28T07:32:06.738Z,6.92
2018-01-28T07:34:34.177Z,7.00
2018-01-28T07:37:01.589Z,7.04
2018-01-28T07:39:29.033Z,6.99
2018-01-28T07:41:56.445Z,6.92
2018-01-28T07:44:23.953Z,6.98
2018-01-28T07:46:51.396Z,7.03
2018-01-28T07:49:18.877Z,7.05
2018-01-28T07:51:46.319Z,7.01
2018-01-28T07:54:13.756Z,7.09
2018-01-28T07:56:41.179Z,7.09
2018-01-28T07:59:09.782Z,7.29
2018-01-28T08:01:37.293Z,7.19
2018-01-28T08:04:04.828Z,7.14
2018-01-28T08:06:32.290Z,7.13
2018-01-28T08:09:00.210Z,7.14
2018-01-28T08:11:33.342Z,7.20
2018-01-28T08:14:03.228Z,7.24
2018-01-28T08:16:30.653Z,7.27
2018-01-28T08:18:58.068Z,7.29
2018-01-28T08:21:25.521Z,7.34
2018-01-28T08:23:52.933Z,7.40
2018-01-28T08:26:26.317Z,7.35
2018-01-28T08:28:59.306Z,7.37
2018-01-28T08:31:26.769Z,7.35
2018-01-28T08:33:54.330Z,7.45
2018-01-28T08:36:21.798Z,7.61
2018-01-28T08:38:49.232Z,7.50
2018-01-28T08:41:21.661Z,7.57
2018-01-28T08:43:49.094Z,7.71
2018-01-28T08:46:16.754Z,7.69
2018-01-28T08:48:44.225Z,7.57
2018-01-28T08:51:11.679Z,7.62
2018-01-28T08:53:39.124Z,7.70
2018-01-28T08:56:06.657Z,7.64
2018-01-28T08:58:34.092Z,7.76
2018-01-28T09:01:01.934Z,7.76
2018-01-28T09:03:29.369Z,7.72
2018-01-28T09:05:56.786Z,7.64
2018-01-28T09:08:24.236Z,7.82
2018-01-28T09:10:51.670Z,7.72
2018-01-28T09:13:19.122Z,7.79
2018-01-28T09:15:46.544Z,7.65
2018-01-28T09:18:14.179Z,7.73
2018-01-28T09:20:41.611Z,7.81
2018-01-28T09:23:09.175Z,7.83
2018-01-28T09:25:36.606Z,7.68
2018-01-28T09:28:04.091Z,7.77
2018-01-28T09:30:31.523Z,7.73
2018-01-28T09:32:58.974Z,7.86
2018-01-28T09:35:26.405Z,7.84
2018-01-28T09:37:53.853Z,7.94
2018-01-28T09:40:21.284Z,7.93
2018-01-28T09:42:48.733Z,7.97
2018-01-28T09:45:16.206Z,8.14
2018-01-28T09:47:44.165Z,8.08
2018-01-28T09:50:12.140Z,8.09
2018-01-28T09:52:39.603Z,8.03
2018-01-28T09:55:07.036Z,8.04
2018-01-28T09:57:34.466Z,8.01
2018-01-28T10:00:01.903Z,8.06
2018-01-28T10:02:29.321Z,8.06
2018-01-28T10:04:56.784Z,8.05
2018-01-28T10:07:24.240Z,8.10
2018-01-28T10:09:52.486Z,8.17
2018-01-28T10:12:19.929Z,8.17
2018-01-28T10:14:47.388Z,8.15
2018-01-28T10:17:15.215Z,8.21
2018-01-28T10:19:42.725Z,8.24
2018-01-28T10:22:11.134Z,8.35
2018-01-28T10:24:38.613Z,8.38
2018-01-28T10:27:06.041Z,8.28
2018-01-28T10:29:33.494Z,8.35
2018-01-28T10:32:00.973Z,8.39
2018-01-28T10:34:28.521Z,8.44
2018-01-28T10:36:55.964Z,8.46
2018-01-28T10:39:23.422Z,8.61
2018-01-28T10:41:50.849Z,8.80
2018-01-28T10:44:18.343Z,8.61
2018-01-28T10:46:45.907Z,8.97
2018-01-28T10:49:13.342Z,8.78
2018-01-28T10:51:41.261Z,8.77
2018-01-28T10:54:08.719Z,8.94
2018-01-28T10:56:37.235Z,9.02
2018-01-28T10:59:04.676Z,8.97
2018-01-28T11:01:32.122Z,8.96
2018-01-28T11:03:59.560Z,9.06
2018-01-28T11:06:27.008Z,9.07
2018-01-28T11:08:54.438Z,9.07
2018-01-28T11:11:21.932Z,9.14
2018-01-28T11:13:49.396Z,9.03
2018-01-28T11:16:16.930Z,9.24
2018-01-28T11:18:44.386Z,9.11
2018-01-28T11:21:11.873Z,8.97
2018-01-28T11:23:39.391Z,9.02
2018-01-28T11:26:06.829Z,9.14
2018-01-28T11:28:34.259Z,9.10
2018-01-28T11:31:01.696Z,9.00
2018-01-28T11:33:29.114Z,9.03
2018-01-28T11:35:56.555Z,9.01
2018-01-28T11:38:24.016Z,8.93
2018-01-28T11:40:51.473Z,9.07
2018-01-28T11:43:19.072Z,9.31
2018-01-28T11:45:46.516Z,9.14
2018-01-28T11:48:13.939Z,9.08
2018-01-28T11:50:41.641Z,9.16
2018-01-28T11:53:09.085Z,9.24
2018-01-28T11:55:36.532Z,9.18
2018-01-28T11:58:03.969Z,9.19
2018-01-28T12:00:31.388Z,9.08
2018-01-28T12:02:58.820Z,9.26
2018-01-28T12:05:26.241Z,9.25
2018-01-28T12:07:53.695Z,9.21
2018-01-28T12:10:21.138Z,9.35
2018-01-28T12:12:48.578Z,9.36
2018-01-28T12:15:15.996Z,9.40
2018-01-28T12:17:43.436Z,9.43
2018-01-28T12:20:11.773Z,9.63
2018-01-28T12:22:39.258Z,9.62
2018-01-28T12:25:06.729Z,9.61
2018-01-28T12:27:34.167Z,9.41
2018-01-28T12:30:01.680Z,9.58
2018-01-28T12:32:30.783Z,9.44
2018-01-28T12:34:58.229Z,9.46
2018-01-28T12:37:25.641Z,9.35
2018-01-28T12:39:53.097Z,9.28
2018-01-28T12:42:20.542Z,9.51
2018-01-28T12:44:48.049Z,9.31
2018-01-28T12:47:16.211Z,9.43
2018-01-28T12:49:43.659Z,9.34
2018-01-28T12:52:11.894Z,9.36
2018-01-28T12:54:39.504Z,9.32
2018-01-28T12:57:06.935Z,9.36
2018-01-28T12:59:34.378Z,9.44
2018-01-28T13:02:01.804Z,9.65
2018-01-28T13:04:29.245Z,9.65
2018-01-28T13:06:56.694Z,9.90
2018-01-28T13:09:24.133Z,9.80
2018-01-28T13:11:51.584Z,9.96
2018-01-28T13:14:19.001Z,10.08
2018-01-28T13:16:46.453Z,9.95
2018-01-28T13:19:13.884Z,9.80
2018-01-28T13:21:42.086Z,9.71
2018-01-28T13:24:09.518Z,9.69
2018-01-28T13:26:36.981Z,9.77
2018-01-28T13:29:04.425Z,9.84
2018-01-28T13:31:31.938Z,9.65
2018-01-28T13:33:59.369Z,9.81
2018-01-28T13:36:26.821Z,9.85
2018-01-28T13:38:54.283Z,9.88
2018-01-28T13:41:21.781Z,9.99
2018-01-28T13:43:49.240Z,9.83
2018-01-28T13:46:16.702Z,10.05
2018-01-28T13:48:49.613Z,9.97
2018-01-28T13:51:20.843Z,10.31
2018-01-28T13:53:48.509Z,10.20
2018-01-28T13:56:15.966Z,10.50
2018-01-28T13:58:43.429Z,10.09
2018-01-28T14:01:10.996Z,10.14
2018-01-28T14:03:38.438Z,10.00
2018-01-28T14:06:06.134Z,9.99
2018-01-28T14:08:33.599Z,9.85
2018-01-28T14:11:01.059Z,9.96
2018-01-28T14:13:29.158Z,9.83
2018-01-28T14:15:56.631Z,9.78
2018-01-28T14:18:24.081Z,9.71
2018-01-28T14:20:51.511Z,9.67
2018-01-28T14:23:20.749Z,9.70
2018-01-28T14:25:49.751Z,9.58
2018-01-28T14:28:17.264Z,9.59
2018-01-28T14:30:44.719Z,9.53
2018-01-28T14:33:12.600Z,9.63
2018-01-28T14:35:40.033Z,9.61
2018-01-28T14:38:07.461Z,9.66
2018-01-28T14:40:34.901Z,9.66
2018-01-28T14:43:02.337Z,9.64
2018-01-28T14:45:29.820Z,9.60
2018-01-28T14:47:57.259Z,9.62
2018-01-28T14:50:24.706Z,9.71
2018-01-28T14:52:52.131Z,9.69
2018-01-28T14:55:19.568Z,9.66
2018-01-28T14:57:46.980Z,9.66
2018-01-28T15:00:14.429Z,9.65
2018-01-28T15:02:42.588Z,9.62
2018-01-28T15:05:10.139Z,9.67
2018-01-28T15:07:37.572Z,9.60
2018-01-28T15:10:05.028Z,9.60
2018-01-28T15:12:32.474Z,9.54
2018-01-28T15:15:00.154Z,9.61
2018-01-28T15:17:27.641Z,9.56
2018-01-28T15:19:55.072Z,9.60
2018-01-28T15:22:22.549Z,9.64
2018-01-28T15:24:49.968Z,9.50
2018-01-28T15:27:17.454Z,9.49
2018-01-28T15:29:44.871Z,9.49
2018-01-28T15:32:12.837Z,9.44
2018-01-28T15:34:40.260Z,9.44
2018-01-28T15:37:07.714Z,9.41
2018-01-28T15:39:35.136Z,9.45
2018-01-28T15:42:02.568Z,9.46
2018-01-28T15:44:30.098Z,9.39
2018-01-28T15:46:57.548Z,9.57
2018-01-28T15:49:24.999Z,9.53
2018-01-28T15:51:52.473Z,9.52
2018-01-28T15:54:19.896Z,9.44
2018-01-28T15:56:47.350Z,9.50
2018-01-28T15:59:15.230Z,9.49
2018-01-28T16:01:42.953Z,9.44
2018-01-28T16:04:10.426Z,9.51
2018-01-28T16:06:37.850Z,9.49
2018-01-28T16:09:05.287Z,9.45
2018-01-28T16:11:32.797Z,9.46
2018-01-28T16:14:00.313Z,9.49
2018-01-28T16:16:27.773Z,9.58
2018-01-28T16:18:55.214Z,9.44
2018-01-28T16:21:22.646Z,9.41
2018-01-28T16:23:50.089Z,9.53
2018-01-28T16:26:17.540Z,9.52
2018-01-28T16:28:45.014Z,9.49
2018-01-28T16:31:13.128Z,9.45
2018-01-28T16:33:41.453Z,9.35
2018-01-28T16:36:08.886Z,9.37
2018-01-28T16:38:36.367Z,9.47
2018-01-28T16:41:03.795Z,9.46
2018-01-28T16:43:31.220Z,9.46
2018-01-28T16:45:58.653Z,9.36
2018-01-28T16:48:26.132Z,9.36
2018-01-28T16:50:53.937Z,9.49
2018-01-28T16:53:21.434Z,9.49
2018-01-28T16:55:48.871Z,9.50
2018-01-28T16:58:16.288Z,9.39
2018-01-28T17:00:43.764Z,9.44
2018-01-28T17:03:11.188Z,9.46
2018-01-28T17:05:38.628Z,9.54
2018-01-28T17:08:06.196Z,9.38
2018-01-28T17:10:33.628Z,9.47
2018-01-28T17:13:01.057Z,9.42
2018-01-28T17:15:28.506Z,9.43
2018-01-28T17:17:55.941Z,9.44
2018-01-28T17:20:23.388Z,9.47
2018-01-28T17:22:50.830Z,9.57
2018-01-28T17:25:18.294Z,9.50
2018-01-28T17:27:45.746Z,9.36
2018-01-28T17:30:13.549Z,9.33
2018-01-28T17:32:41.079Z,9.36
2018-01-28T17:35:14.134Z,9.41
2018-01-28T17:37:42.391Z,9.52
2018-01-28T17:40:09.928Z,9.39
2018-01-28T17:42:37.433Z,9.41
2018-01-28T17:45:04.896Z,9.42
2018-01-28T17:47:32.346Z,9.39
2018-01-28T17:49:59.816Z,9.40
2018-01-28T17:52:27.251Z,9.43
2018-01-28T17:54:54.713Z,9.45
2018-01-28T17:57:22.162Z,9.34
2018-01-28T17:59:49.601Z,9.37
2018-01-28T18:02:17.107Z,9.38
2018-01-28T18:04:44.741Z,9.38
2018-01-28T18:07:12.252Z,9.38
2018-01-28T18:09:39.677Z,9.47
2018-01-28T18:12:07.238Z,9.42
2018-01-28T18:14:34.652Z,9.39
2018-01-28T18:17:02.080Z,9.42
2018-01-28T18:19:29.513Z,9.47
2018-01-28T18:21:57.024Z,9.52
2018-01-28T18:24:24.436Z,9.48
2018-01-28T18:26:51.881Z,9.42
2018-01-28T18:29:19.320Z,9.44
2018-01-28T18:31:46.769Z,9.44
2018-01-28T18:34:14.190Z,9.43
2018-01-28T18:36:41.676Z,9.43
2018-01-28T18:39:09.139Z,9.53
2018-01-28T18:41:36.724Z,9.52
2018-01-28T18:44:04.191Z,9.49
2018-01-28T18:46:31.678Z,9.52
2018-01-28T18:48:59.156Z,9.53
2018-01-28T18:51:26.649Z,9.64
2018-01-28T18:53:54.089Z,9.56
2018-01-28T18:56:21.510Z,9.54
2018-01-28T18:58:48.954Z,9.62
2018-01-28T19:01:16.385Z,9.58
2018-01-28T19:03:43.872Z,9.47
2018-01-28T19:06:11.339Z,9.53
2018-01-28T19:08:38.818Z,9.55
2018-01-28T19:11:06.275Z,9.53
2018-01-28T19:13:33.769Z,9.57
2018-01-28T19:16:01.194Z,9.54
2018-01-28T19:18:28.650Z,9.60
2018-01-28T19:20:56.360Z,9.51
2018-01-28T19:23:23.838Z,9.58
2018-01-28T19:25:51.346Z,9.62
2018-01-28T19:28:19.821Z,9.53
2018-01-28T19:30:47.270Z,9.51
2018-01-28T19:33:14.748Z,9.58
2018-01-28T19:35:42.202Z,9.62
2018-01-28T19:38:09.660Z,9.64
2018-01-28T19:40:37.081Z,9.62
2018-01-28T19:43:04.532Z,9.62
2018-01-28T19:45:32.083Z,9.66
2018-01-28T19:47:59.693Z,9.73
2018-01-28T19:50:27.237Z,9.64
2018-01-28T19:52:55.390Z,9.62
2018-01-28T19:55:22.814Z,9.63
2018-01-28T19:57:50.712Z,9.64
2018-01-28T20:00:18.175Z,9.67
2018-01-28T20:02:45.600Z,9.70
2018-01-28T20:05:14.124Z,9.72
2018-01-28T20:07:41.642Z,9.68
2018-01-28T20:10:11.937Z,9.68
2018-01-28T20:12:39.394Z,9.60
2018-01-28T20:15:06.868Z,9.62
2018-01-28T20:17:34.276Z,9.65
2018-01-28T20:20:01.732Z,9.64
2018-01-28T20:22:29.182Z,9.61
2018-01-28T20:24:56.663Z,9.70
2018-01-28T20:27:24.101Z,9.75
2018-01-28T20:29:51.571Z,9.70
2018-01-28T20:32:19.004Z,9.63
2018-01-28T20:34:46.570Z,9.64
2018-01-28T20:37:14.310Z,9.74
2018-01-28T20:39:41.825Z,9.67
2018-01-28T20:42:09.258Z,9.65
2018-01-28T20:44:36.693Z,9.84
2018-01-28T20:47:04.116Z,9.79
2018-01-28T20:49:31.555Z,9.72
2018-01-28T20:51:58.993Z,9.70
2018-01-28T20:54:26.531Z,9.80
2018-01-28T20:56:53.969Z,9.80
2018-01-28T20:59:21.390Z,9.64
2018-01-28T21:01:48.832Z,9.67
2018-01-28T21:04:16.316Z,9.67
2018-01-28T21:06:44.868Z,9.64
2018-01-28T21:09:12.313Z,9.67
2018-01-28T21:11:39.754Z,9.71
2018-01-28T21:14:07.194Z,9.76
2018-01-28T21:16:34.673Z,9.76
2018-01-28T21:19:02.080Z,9.77
2018-01-28T21:21:29.518Z,9.70
2018-01-28T21:23:56.945Z,9.71
2018-01-28T21:26:24.398Z,9.68
2018-01-28T21:28:51.831Z,9.62
2018-01-28T21:31:19.256Z,9.71
2018-01-28T21:33:46.716Z,9.78
2018-01-28T21:36:14.545Z,9.79
2018-01-28T21:38:42.267Z,9.78
2018-01-28T21:41:09.727Z,9.75
2018-01-28T21:43:37.197Z,9.71
2018-01-28T21:46:04.637Z,9.75
2018-01-28T21:48:34.212Z,9.79
2018-01-28T21:51:01.804Z,9.75
2018-01-28T21:53:29.513Z,9.75
2018-01-28T21:55:57.049Z,9.73
2018-01-28T21:58:24.503Z,9.80
2018-01-28T22:00:51.958Z,9.79
2018-01-28T22:03:19.400Z,9.85
2018-01-28T22:05:46.815Z,9.81
2018-01-28T22:08:14.669Z,9.92
2018-01-28T22:10:42.108Z,9.91
2018-01-28T22:13:09.660Z,9.91
2018-01-28T22:15:37.156Z,9.92
2018-01-28T22:18:04.590Z,9.84
2018-01-28T22:20:32.206Z,9.85
2018-01-28T22:22:59.632Z,9.97
2018-01-28T22:25:27.060Z,10.01
2018-01-28T22:27:54.476Z,10.10
2018-01-28T22:30:21.916Z,9.99
2018-01-28T22:32:49.345Z,10.12
2018-01-28T22:35:16.802Z,10.14
2018-01-28T22:37:44.749Z,9.95
2018-01-28T22:40:12.219Z,9.99
2018-01-28T22:42:39.780Z,10.08
2018-01-28T22:45:07.244Z,9.93
2018-01-28T22:47:34.680Z,9.97
2018-01-28T22:50:02.155Z,9.99
2018-01-28T22:52:29.720Z,10.01
2018-01-28T22:54:57.164Z,9.98
2018-01-28T22:57:24.609Z,9.95
2018-01-28T22:59:52.049Z,9.93
2018-01-28T23:02:19.470Z,9.96
2018-01-28T23:04:46.929Z,10.00
2018-01-28T23:07:14.910Z,10.03
2018-01-28T23:09:42.370Z,10.09
2018-01-28T23:12:09.812Z,9.96
2018-01-28T23:14:49.697Z,9.96
2018-01-28T23:17:22.838Z,10.02
2018-01-28T23:19:50.676Z,10.00
2018-01-28T23:22:18.134Z,9.94
2018-01-28T23:24:45.573Z,9.89
2018-01-28T23:27:13.013Z,9.84
2018-01-28T23:29:40.444Z,9.94
2018-01-28T23:32:08.021Z,10.02
2018-01-28T23:34:35.473Z,9.94
2018-01-28T23:37:02.960Z,9.91
2018-01-28T23:39:30.541Z,10.02
2018-01-28T23:41:57.973Z,9.92
2018-01-28T23:44:25.423Z,9.89
2018-01-28T23:46:53.008Z,9.97
2018-01-28T23:49:20.518Z,10.03
2018-01-28T23:51:47.978Z,9.97
2018-01-28T23:54:15.454Z,9.98
2018-01-28T23:56:43.021Z,9.95
2018-01-28T23:59:11.007Z,9.99
